PWSweather.com
Personal Weather Stations
Station Observations
W2RIU
Robbinsville, Nj, Robbinsville, NJ 08691

Robbinsville, NjRobbinsville, NJ 08691

Lat: 40.21452, Lon: -74.57827

Elevation: 161

Station Type: DsIP-VP

Latest ConditionsUpdated 12:30:00 PM EST Friday, Nov 17, 2017
Currently Today's Max Today's Min Today's Average
Temperature 46.1°F7.8°C 46.1°F7.8°C 40.2°F4.6°C 42.8°F6.0°C
Dew Point 28.0°F-2.2°C 35.2°F1.8°C 27.2°F-2.7°C 30.8°F-0.7°C
Winds 10.0 mph W16.1 kmh W 12.0 mph W19.3 kmh W - 8.5 mph 13.7 kmh
Wind Gusts 19.0 mph30.6 kmh 28.0 mph45.1 kmh - -
Humidity 49% 73% 49% 63%
Pressure 30.11 in1019.6 mb 30.14 in1020.7 mb 29.97 in1014.9 mb -
Hour Temp Dew Point Humidity Winds Wind Gusts Pressure Precip Precip Rate Daily Precip Total
12:30 PM 46.1°F7.8°C 28.0°F-2.2°C 49% 10.0 mph W16.1 kmh W 19.0 mph30.6 kmh 30.11 in1019.6 mb 0.00 in0.0 mm 0.00 in0.0 mm 0.00 in0.0 mm
12:15 PM 45.3°F7.4°C 27.2°F-2.7°C 49% 9.0 mph W14.5 kmh W 18.0 mph29.0 kmh 30.11 in1019.6 mb 0.00 in0.0 mm 0.00 in0.0 mm 0.00 in0.0 mm
12:00 PM 45.6°F7.6°C 27.5°F-2.5°C 49% 8.0 mph W12.9 kmh W 13.0 mph20.9 kmh 30.12 in1020.0 mb 0.00 in0.0 mm 0.00 in0.0 mm 0.00 in0.0 mm
11:45 AM 45.0°F7.2°C 27.9°F-2.3°C 51% 11.0 mph W17.7 kmh W 20.0 mph32.2 kmh 30.11 in1019.6 mb 0.00 in0.0 mm 0.00 in0.0 mm 0.00 in0.0 mm
11:30 AM 44.5°F6.9°C 27.5°F-2.5°C 51% 10.0 mph W16.1 kmh W 18.0 mph29.0 kmh 30.11 in1019.6 mb 0.00 in0.0 mm 0.00 in0.0 mm 0.00 in0.0 mm
11:15 AM 44.1°F6.7°C 28.5°F-1.9°C 54% 9.0 mph W14.5 kmh W 19.0 mph30.6 kmh 30.12 in1020.0 mb 0.00 in0.0 mm 0.00 in0.0 mm 0.00 in0.0 mm
11:00 AM 43.8°F6.6°C 28.7°F-1.8°C 55% 11.0 mph W17.7 kmh W 19.0 mph30.6 kmh 30.12 in1020.0 mb 0.00 in0.0 mm 0.00 in0.0 mm 0.00 in0.0 mm
10:45 AM 43.2°F6.2°C 28.5°F-1.9°C 56% 8.0 mph WNW12.9 kmh WNW 16.0 mph25.7 kmh 30.13 in1020.3 mb 0.00 in0.0 mm 0.00 in0.0 mm 0.00 in0.0 mm
10:30 AM 42.8°F6.0°C 28.2°F-2.1°C 56% 11.0 mph W17.7 kmh W 23.0 mph37.0 kmh 30.13 in1020.3 mb 0.00 in0.0 mm 0.00 in0.0 mm 0.00 in0.0 mm
10:15 AM 42.9°F6.1°C 29.1°F-1.6°C 58% 11.0 mph W17.7 kmh W 19.0 mph30.6 kmh 30.14 in1020.7 mb 0.00 in0.0 mm 0.00 in0.0 mm 0.00 in0.0 mm
10:00 AM 42.8°F6.0°C 29.0°F-1.7°C 58% 9.0 mph W14.5 kmh W 16.0 mph25.7 kmh 30.14 in1020.7 mb 0.00 in0.0 mm 0.00 in0.0 mm 0.00 in0.0 mm
09:45 AM 42.8°F6.0°C 29.5°F-1.4°C 59% 7.0 mph WNW11.3 kmh WNW 13.0 mph20.9 kmh 30.14 in1020.7 mb 0.00 in0.0 mm 0.00 in0.0 mm 0.00 in0.0 mm
09:30 AM 42.5°F5.8°C 29.2°F-1.6°C 59% 8.0 mph W12.9 kmh W 18.0 mph29.0 kmh 30.13 in1020.3 mb 0.00 in0.0 mm 0.00 in0.0 mm 0.00 in0.0 mm
09:15 AM 41.9°F5.5°C 29.4°F-1.4°C 61% 9.0 mph WNW14.5 kmh WNW 19.0 mph30.6 kmh 30.12 in1020.0 mb 0.00 in0.0 mm 0.00 in0.0 mm 0.00 in0.0 mm
09:00 AM 41.7°F5.4°C 29.2°F-1.6°C 61% 10.0 mph W16.1 kmh W 17.0 mph27.4 kmh 30.12 in1020.0 mb 0.00 in0.0 mm 0.00 in0.0 mm 0.00 in0.0 mm
08:45 AM 41.5°F5.3°C 29.0°F-1.7°C 61% 12.0 mph W19.3 kmh W 24.0 mph38.6 kmh 30.12 in1020.0 mb 0.00 in0.0 mm 0.00 in0.0 mm 0.00 in0.0 mm
08:30 AM 41.5°F5.3°C 29.0°F-1.7°C 61% 12.0 mph W19.3 kmh W 23.0 mph37.0 kmh 30.12 in1020.0 mb 0.00 in0.0 mm 0.00 in0.0 mm 0.00 in0.0 mm
08:15 AM 41.2°F5.1°C 29.5°F-1.4°C 63% 10.0 mph W16.1 kmh W 20.0 mph32.2 kmh 30.11 in1019.6 mb 0.00 in0.0 mm 0.00 in0.0 mm 0.00 in0.0 mm
08:00 AM 40.8°F4.9°C 29.6°F-1.3°C 64% 7.0 mph W11.3 kmh W 14.0 mph22.5 kmh 30.11 in1019.6 mb 0.00 in0.0 mm 0.00 in0.0 mm 0.00 in0.0 mm
07:45 AM 40.4°F4.7°C 29.6°F-1.3°C 65% 6.0 mph W9.7 kmh W 12.0 mph19.3 kmh 30.11 in1019.6 mb 0.00 in0.0 mm 0.00 in0.0 mm 0.00 in0.0 mm
07:30 AM 40.2°F4.6°C 29.4°F-1.4°C 65% 6.0 mph W9.7 kmh W 12.0 mph19.3 kmh 30.10 in1019.3 mb 0.00 in0.0 mm 0.00 in0.0 mm 0.00 in0.0 mm
07:15 AM 40.2°F4.6°C 29.4°F-1.4°C 65% 7.0 mph W11.3 kmh W 14.0 mph22.5 kmh 30.09 in1019.0 mb 0.00 in0.0 mm 0.00 in0.0 mm 0.00 in0.0 mm
07:00 AM 40.4°F4.7°C 29.2°F-1.6°C 64% 6.0 mph W9.7 kmh W 11.0 mph17.7 kmh 30.08 in1018.6 mb 0.00 in0.0 mm 0.00 in0.0 mm 0.00 in0.0 mm
06:45 AM 40.8°F4.9°C 29.2°F-1.6°C 63% 8.0 mph W12.9 kmh W 14.0 mph22.5 kmh 30.07 in1018.3 mb 0.00 in0.0 mm 0.00 in0.0 mm 0.00 in0.0 mm
06:30 AM 41.2°F5.1°C 29.2°F-1.6°C 62% 8.0 mph W12.9 kmh W 16.0 mph25.7 kmh 30.07 in1018.3 mb 0.00 in0.0 mm 0.00 in0.0 mm 0.00 in0.0 mm
06:15 AM 41.2°F5.1°C 29.5°F-1.4°C 63% 6.0 mph W9.7 kmh W 12.0 mph19.3 kmh 30.06 in1017.9 mb 0.00 in0.0 mm 0.00 in0.0 mm 0.00 in0.0 mm
06:00 AM 41.4°F5.2°C 29.3°F-1.5°C 62% 6.0 mph W9.7 kmh W 11.0 mph17.7 kmh 30.06 in1017.9 mb 0.00 in0.0 mm 0.00 in0.0 mm 0.00 in0.0 mm
05:45 AM 41.9°F5.5°C 29.4°F-1.4°C 61% 9.0 mph W14.5 kmh W 18.0 mph29.0 kmh 30.05 in1017.6 mb 0.00 in0.0 mm 0.00 in0.0 mm 0.00 in0.0 mm
05:30 AM 42.3°F5.7°C 29.8°F-1.2°C 61% 10.0 mph W16.1 kmh W 17.0 mph27.4 kmh 30.05 in1017.6 mb 0.00 in0.0 mm 0.00 in0.0 mm 0.00 in0.0 mm
05:15 AM 42.7°F5.9°C 29.8°F-1.2°C 60% 10.0 mph W16.1 kmh W 20.0 mph32.2 kmh 30.05 in1017.6 mb 0.00 in0.0 mm 0.00 in0.0 mm 0.00 in0.0 mm
05:00 AM 42.8°F6.0°C 30.3°F-0.9°C 61% 12.0 mph W19.3 kmh W 23.0 mph37.0 kmh 30.04 in1017.3 mb 0.00 in0.0 mm 0.00 in0.0 mm 0.00 in0.0 mm
04:45 AM 42.9°F6.1°C 30.4°F-0.9°C 61% 10.0 mph W16.1 kmh W 23.0 mph37.0 kmh 30.03 in1016.9 mb 0.00 in0.0 mm 0.00 in0.0 mm 0.00 in0.0 mm
04:30 AM 42.9°F6.1°C 30.8°F-0.7°C 62% 8.0 mph W12.9 kmh W 16.0 mph25.7 kmh 30.03 in1016.9 mb 0.00 in0.0 mm 0.00 in0.0 mm 0.00 in0.0 mm
04:15 AM 43.5°F6.4°C 31.3°F-0.4°C 62% 11.0 mph W17.7 kmh W 21.0 mph33.8 kmh 30.02 in1016.6 mb 0.00 in0.0 mm 0.00 in0.0 mm 0.00 in0.0 mm
04:00 AM 43.5°F6.4°C 31.7°F-0.2°C 63% 10.0 mph W16.1 kmh W 19.0 mph30.6 kmh 30.02 in1016.6 mb 0.00 in0.0 mm 0.00 in0.0 mm 0.00 in0.0 mm
03:45 AM 43.4°F6.3°C 32.4°F0.2°C 65% 11.0 mph W17.7 kmh W 17.0 mph27.4 kmh 30.02 in1016.6 mb 0.00 in0.0 mm 0.00 in0.0 mm 0.00 in0.0 mm
03:30 AM 43.3°F6.3°C 33.1°F0.6°C 67% 10.0 mph W16.1 kmh W 20.0 mph32.2 kmh 30.01 in1016.3 mb 0.00 in0.0 mm 0.00 in0.0 mm 0.00 in0.0 mm
03:15 AM 43.1°F6.2°C 34.0°F1.1°C 70% 9.0 mph W14.5 kmh W 19.0 mph30.6 kmh 30.01 in1016.3 mb 0.00 in0.0 mm 0.00 in0.0 mm 0.00 in0.0 mm
03:00 AM 43.1°F6.2°C 34.3°F1.3°C 71% 10.0 mph W16.1 kmh W 18.0 mph29.0 kmh 30.00 in1015.9 mb 0.00 in0.0 mm 0.00 in0.0 mm 0.00 in0.0 mm
02:45 AM 43.2°F6.2°C 34.4°F1.3°C 71% 9.0 mph W14.5 kmh W 20.0 mph32.2 kmh 30.00 in1015.9 mb 0.00 in0.0 mm 0.00 in0.0 mm 0.00 in0.0 mm
02:30 AM 43.4°F6.3°C 34.6°F1.4°C 71% 10.0 mph W16.1 kmh W 28.0 mph45.1 kmh 29.99 in1015.6 mb 0.00 in0.0 mm 0.00 in0.0 mm 0.00 in0.0 mm
02:15 AM 43.6°F6.4°C 35.2°F1.8°C 72% 10.0 mph W16.1 kmh W 16.0 mph25.7 kmh 29.99 in1015.6 mb 0.00 in0.0 mm 0.00 in0.0 mm 0.00 in0.0 mm
02:00 AM 43.2°F6.2°C 35.1°F1.7°C 73% 6.0 mph W9.7 kmh W 11.0 mph17.7 kmh 29.99 in1015.6 mb 0.00 in0.0 mm 0.00 in0.0 mm 0.00 in0.0 mm
01:45 AM 43.2°F6.2°C 34.8°F1.6°C 72% 4.0 mph W6.4 kmh W 9.0 mph14.5 kmh 29.98 in1015.2 mb 0.00 in0.0 mm 0.00 in0.0 mm 0.00 in0.0 mm
01:30 AM 43.2°F6.2°C 34.8°F1.6°C 72% 6.0 mph W9.7 kmh W 11.0 mph17.7 kmh 29.98 in1015.2 mb 0.00 in0.0 mm 0.00 in0.0 mm 0.00 in0.0 mm
01:15 AM 43.3°F6.3°C 34.9°F1.6°C 72% 5.0 mph WSW8.0 kmh WSW 13.0 mph20.9 kmh 29.97 in1014.9 mb 0.00 in0.0 mm 0.00 in0.0 mm 0.00 in0.0 mm
01:00 AM 43.3°F6.3°C 34.9°F1.6°C 72% 5.0 mph W8.0 kmh W 10.0 mph16.1 kmh 29.97 in1014.9 mb 0.00 in0.0 mm 0.00 in0.0 mm 0.00 in0.0 mm
12:45 AM 43.0°F6.1°C 34.6°F1.4°C 72% 6.0 mph WSW9.7 kmh WSW 12.0 mph19.3 kmh 29.97 in1014.9 mb 0.00 in0.0 mm 0.00 in0.0 mm 0.00 in0.0 mm
12:30 AM 43.2°F6.2°C 34.4°F1.3°C 71% 7.0 mph WSW11.3 kmh WSW 15.0 mph24.1 kmh 29.97 in1014.9 mb 0.00 in0.0 mm 0.00 in0.0 mm 0.00 in0.0 mm
12:15 AM 43.3°F6.3°C 34.5°F1.4°C 71% 6.0 mph W9.7 kmh W 10.0 mph16.1 kmh 29.97 in1014.9 mb 0.00 in0.0 mm 0.00 in0.0 mm 0.00 in0.0 mm
12:00 AM 43.5°F6.4°C 34.4°F1.3°C 70% 6.0 mph WSW9.7 kmh WSW 10.0 mph16.1 kmh 29.97 in1014.9 mb 0.00 in0.0 mm 0.00 in0.0 mm 0.00 in0.0 mm